createdAt,value
2023-04-10T00:02:26.765Z,100.00
2023-04-10T00:04:54.450Z,100.00
2023-04-10T00:07:23.297Z,100.00
2023-04-10T00:09:50.883Z,100.00
2023-04-10T00:12:18.435Z,100.00
2023-04-10T00:14:46.184Z,100.00
2023-04-10T00:17:13.718Z,100.00
2023-04-10T00:19:41.176Z,100.00
2023-04-10T00:22:08.635Z,100.00
2023-04-10T00:24:37.479Z,100.00
2023-04-10T00:27:04.969Z,100.00
2023-04-10T00:29:32.460Z,100.00
2023-04-10T00:31:59.958Z,100.00
2023-04-10T00:34:27.456Z,100.00
2023-04-10T00:36:54.906Z,100.00
2023-04-10T00:39:22.371Z,100.00
2023-04-10T00:41:51.163Z,100.00
2023-04-10T00:44:18.650Z,100.00
2023-04-10T00:46:46.176Z,100.00
2023-04-10T00:49:14.267Z,100.00
2023-04-10T00:51:43.599Z,100.00
2023-04-10T00:54:12.062Z,100.00
2023-04-10T00:56:40.989Z,100.00
2023-04-10T00:59:10.300Z,100.00
2023-04-10T01:01:37.857Z,100.00
2023-04-10T01:04:05.928Z,100.00
2023-04-10T01:06:48.914Z,100.00
2023-04-10T01:09:27.824Z,100.00
2023-04-10T01:11:59.420Z,100.00
2023-04-10T01:14:38.918Z,100.00
2023-04-10T01:17:11.785Z,100.00
2023-04-10T01:20:07.937Z,100.00
2023-04-10T01:22:37.593Z,100.00
2023-04-10T01:25:29.807Z,100.00
2023-04-10T01:28:12.222Z,100.00
2023-04-10T01:30:42.126Z,100.00
2023-04-10T01:33:13.642Z,100.00
2023-04-10T01:35:44.123Z,100.00
2023-04-10T01:38:13.125Z,100.00
2023-04-10T01:40:42.208Z,100.00
2023-04-10T01:43:12.561Z,100.00
2023-04-10T01:45:43.680Z,100.00
2023-04-10T01:48:11.599Z,100.00
2023-04-10T01:50:39.745Z,100.00
2023-04-10T01:53:08.251Z,100.00
2023-04-10T01:55:38.153Z,100.00
2023-04-10T01:58:06.000Z,100.00
2023-04-10T02:00:39.295Z,100.00
2023-04-10T02:03:08.702Z,100.00
2023-04-10T02:05:46.079Z,100.00
2023-04-10T02:08:18.646Z,100.00
2023-04-10T02:10:52.854Z,100.00
2023-04-10T02:13:22.642Z,100.00
2023-04-10T02:15:52.527Z,100.00
2023-04-10T02:18:23.669Z,100.00
2023-04-10T02:20:52.627Z,100.00
2023-04-10T02:23:21.502Z,100.00
2023-04-10T02:25:48.997Z,100.00
2023-04-10T02:28:16.482Z,100.00
2023-04-10T02:30:43.936Z,100.00
2023-04-10T02:33:11.466Z,100.00
2023-04-10T02:35:40.250Z,100.00
2023-04-10T02:38:07.969Z,100.00
2023-04-10T02:40:36.216Z,100.00
2023-04-10T02:43:03.658Z,100.00
2023-04-10T02:45:33.129Z,100.00
2023-04-10T02:48:00.746Z,100.00
2023-04-10T02:50:29.695Z,100.00
2023-04-10T02:52:58.748Z,100.00
2023-04-10T02:55:26.224Z,100.00
2023-04-10T02:57:53.661Z,100.00
2023-04-10T03:00:21.352Z,100.00
2023-04-10T03:02:49.026Z,100.00
2023-04-10T03:05:16.700Z,100.00
2023-04-10T03:07:44.159Z,100.00
2023-04-10T03:10:12.988Z,100.00
2023-04-10T03:12:40.457Z,100.00
2023-04-10T03:15:09.096Z,100.00
2023-04-10T03:17:36.592Z,100.00
2023-04-10T03:20:04.252Z,100.00
2023-04-10T03:22:33.132Z,100.00
2023-04-10T03:25:01.246Z,100.00
2023-04-10T03:27:32.128Z,100.00
2023-04-10T03:29:59.602Z,100.00
2023-04-10T03:32:28.089Z,100.00
2023-04-10T03:34:55.710Z,100.00
2023-04-10T03:37:23.266Z,100.00
2023-04-10T03:39:50.750Z,100.00
2023-04-10T03:42:18.238Z,100.00
2023-04-10T03:44:47.025Z,100.00
2023-04-10T03:47:14.542Z,100.00
2023-04-10T03:49:42.024Z,100.00
2023-04-10T03:52:09.516Z,100.00
2023-04-10T03:54:36.989Z,100.00
2023-04-10T03:57:04.498Z,100.00
2023-04-10T03:59:38.680Z,100.00
2023-04-10T04:02:08.814Z,100.00
2023-04-10T04:04:36.704Z,100.00
2023-04-10T04:07:04.277Z,100.00
2023-04-10T04:09:31.863Z,100.00
2023-04-10T04:11:59.356Z,100.00
2023-04-10T04:14:26.808Z,100.00
2023-04-10T04:16:54.315Z,100.00
2023-04-10T04:19:23.163Z,100.00
2023-04-10T04:21:50.685Z,100.00
2023-04-10T04:24:18.157Z,100.00
2023-04-10T04:26:45.607Z,100.00
2023-04-10T04:29:13.043Z,100.00
2023-04-10T04:31:40.552Z,100.00
2023-04-10T04:34:08.050Z,100.00
2023-04-10T04:36:36.842Z,100.00
2023-04-10T04:39:04.386Z,100.00
2023-04-10T04:41:32.566Z,100.00
2023-04-10T04:44:01.090Z,100.00
2023-04-10T04:46:28.763Z,100.00
2023-04-10T04:48:56.309Z,100.00
2023-04-10T04:51:23.977Z,100.00
2023-04-10T04:53:53.186Z,100.00
2023-04-10T04:56:20.930Z,100.00
2023-04-10T04:58:48.392Z,100.00
2023-04-10T05:01:16.032Z,100.00
2023-04-10T05:03:43.690Z,100.00
2023-04-10T05:06:11.770Z,100.00
2023-04-10T05:08:39.291Z,100.00
2023-04-10T05:11:08.309Z,100.00
2023-04-10T05:13:35.842Z,100.00
2023-04-10T05:16:03.335Z,100.00
2023-04-10T05:18:31.111Z,100.00
2023-04-10T05:20:58.630Z,100.00
2023-04-10T05:23:26.158Z,100.00
2023-04-10T05:25:53.617Z,100.00
2023-04-10T05:28:23.267Z,100.00
2023-04-10T05:30:50.734Z,100.00
2023-04-10T05:33:18.238Z,100.00
2023-04-10T05:35:47.219Z,100.00
2023-04-10T05:38:14.697Z,100.00
2023-04-10T05:40:45.790Z,100.00
2023-04-10T05:43:13.550Z,96.81
2023-04-10T05:45:44.932Z,98.32
2023-04-10T05:48:12.409Z,91.61
2023-04-10T05:50:39.878Z,71.47
2023-04-10T05:53:07.360Z,74.63
2023-04-10T05:55:34.824Z,68.93
2023-04-10T05:58:02.312Z,76.56
2023-04-10T06:00:29.915Z,60.64
2023-04-10T06:02:59.040Z,65.14
2023-04-10T06:05:26.647Z,62.44
2023-04-10T06:07:55.251Z,58.21
2023-04-10T06:10:24.418Z,54.45
2023-04-10T06:12:51.927Z,50.72
2023-04-10T06:15:19.499Z,50.75
2023-04-10T06:17:47.008Z,45.90
2023-04-10T06:20:15.858Z,44.45
2023-04-10T06:22:43.312Z,44.02
2023-04-10T06:25:11.190Z,42.84
2023-04-10T06:27:38.882Z,38.95
2023-04-10T06:30:07.851Z,35.17
2023-04-10T06:32:35.320Z,37.37
2023-04-10T06:35:02.816Z,36.04
2023-04-10T06:37:32.695Z,36.96
2023-04-10T06:40:05.867Z,37.97
2023-04-10T06:42:33.349Z,40.13
2023-04-10T06:45:01.411Z,40.64
2023-04-10T06:47:29.192Z,40.71
2023-04-10T06:49:56.698Z,41.60
2023-04-10T06:52:24.255Z,42.33
2023-04-10T06:54:53.198Z,43.63
2023-04-10T06:57:21.235Z,44.08
2023-04-10T06:59:48.797Z,43.12
2023-04-10T07:02:16.356Z,43.29
2023-04-10T07:04:43.842Z,43.36
2023-04-10T07:07:13.258Z,42.40
2023-04-10T07:09:41.189Z,44.29
2023-04-10T07:12:09.993Z,44.50
2023-04-10T07:14:37.483Z,43.30
2023-04-10T07:17:04.942Z,42.12
2023-04-10T07:19:32.462Z,41.82
2023-04-10T07:22:00.588Z,41.68
2023-04-10T07:24:28.349Z,42.22
2023-04-10T07:26:57.185Z,42.67
2023-04-10T07:29:26.136Z,42.78
2023-04-10T07:31:53.685Z,42.33
2023-04-10T07:34:21.189Z,41.36
2023-04-10T07:36:48.659Z,40.73
2023-04-10T07:39:16.148Z,39.82
2023-04-10T07:41:44.002Z,40.21
2023-04-10T07:44:13.058Z,39.96
2023-04-10T07:46:41.989Z,40.34
2023-04-10T07:49:09.480Z,39.79
2023-04-10T07:51:37.067Z,40.89
2023-04-10T07:54:04.720Z,42.22
2023-04-10T07:56:32.210Z,41.77
2023-04-10T07:59:00.781Z,41.41
2023-04-10T08:01:28.651Z,40.92
2023-04-10T08:03:57.663Z,41.72
2023-04-10T08:06:25.794Z,40.82
2023-04-10T08:08:53.555Z,40.62
2023-04-10T08:11:27.424Z,39.52
2023-04-10T08:13:55.789Z,38.65
2023-04-10T08:16:25.075Z,38.10
2023-04-10T08:18:52.969Z,38.54
2023-04-10T08:21:22.516Z,38.70
2023-04-10T08:23:51.584Z,40.31
2023-04-10T08:26:19.563Z,40.94
2023-04-10T08:28:50.033Z,41.33
2023-04-10T08:31:17.787Z,42.52
2023-04-10T08:33:45.563Z,42.09
2023-04-10T08:36:16.936Z,43.44
2023-04-10T08:38:47.202Z,43.89
2023-04-10T08:41:16.357Z,44.27
2023-04-10T08:43:45.762Z,44.61
2023-04-10T08:46:14.290Z,44.70
2023-04-10T08:48:47.773Z,43.07
2023-04-10T08:51:20.491Z,44.31
2023-04-10T08:54:03.504Z,44.31
2023-04-10T08:56:33.590Z,45.79
2023-04-10T08:59:02.964Z,44.79
2023-04-10T09:01:30.644Z,44.75
2023-04-10T09:03:59.767Z,44.13
2023-04-10T09:06:27.689Z,44.77
2023-04-10T09:08:56.476Z,45.44
2023-04-10T09:11:23.923Z,45.56
2023-04-10T09:13:51.365Z,45.52
2023-04-10T09:16:18.803Z,48.78
2023-04-10T09:18:48.380Z,47.88
2023-04-10T09:21:17.334Z,48.21
2023-04-10T09:23:45.932Z,47.98
2023-04-10T09:26:29.555Z,46.06
2023-04-10T09:28:58.738Z,45.38
2023-04-10T09:31:31.691Z,46.28
2023-04-10T09:34:10.114Z,44.15
2023-04-10T09:36:38.228Z,44.39
2023-04-10T09:39:06.790Z,44.41
2023-04-10T09:41:35.852Z,42.90
2023-04-10T09:44:08.301Z,40.33
2023-04-10T09:46:36.089Z,43.88
2023-04-10T09:49:05.212Z,43.97
2023-04-10T09:51:34.591Z,45.58
2023-04-10T09:54:02.418Z,44.77
2023-04-10T09:56:30.406Z,43.40
2023-04-10T09:59:00.610Z,43.88
2023-04-10T10:01:29.988Z,43.30
2023-04-10T10:04:02.132Z,42.79
2023-04-10T10:06:31.609Z,42.43
2023-04-10T10:09:03.061Z,41.31
2023-04-10T10:11:33.504Z,42.19
2023-04-10T10:14:04.628Z,44.11
2023-04-10T10:16:37.949Z,44.33
2023-04-10T10:19:10.499Z,43.36
2023-04-10T10:21:39.445Z,42.16
2023-04-10T10:24:09.863Z,40.95
2023-04-10T10:26:40.019Z,41.58
2023-04-10T10:29:11.033Z,41.68
2023-04-10T10:31:39.178Z,41.41
2023-04-10T10:34:09.062Z,42.56
2023-04-10T10:36:37.188Z,42.05
2023-04-10T10:39:19.161Z,41.62
2023-04-10T10:41:54.210Z,40.67
2023-04-10T10:44:30.865Z,40.93
2023-04-10T10:47:07.368Z,39.87
2023-04-10T10:49:55.372Z,39.80
2023-04-10T10:52:39.454Z,40.74
2023-04-10T10:55:31.428Z,41.60
2023-04-10T10:58:01.697Z,39.44
2023-04-10T11:01:02.561Z,39.10
2023-04-10T11:03:31.544Z,39.80
2023-04-10T11:06:02.247Z,39.25
2023-04-10T11:08:43.338Z,39.80
2023-04-10T11:11:15.689Z,40.83
2023-04-10T11:14:12.110Z,39.19
2023-04-10T11:16:44.619Z,40.65
2023-04-10T11:19:15.796Z,40.40
2023-04-10T11:22:04.507Z,42.19
2023-04-10T11:24:57.429Z,42.52
2023-04-10T11:27:48.316Z,41.70
2023-04-10T11:30:32.804Z,41.04
2023-04-10T11:33:01.371Z,40.19
2023-04-10T11:35:31.473Z,40.15
2023-04-10T11:38:17.135Z,40.24
2023-04-10T11:41:06.661Z,41.54
2023-04-10T11:43:35.210Z,39.89
2023-04-10T11:46:08.554Z,40.25
2023-04-10T11:48:37.811Z,38.16
2023-04-10T11:51:14.669Z,38.80
2023-04-10T11:53:42.887Z,37.91
2023-04-10T11:56:17.807Z,37.15
2023-04-10T11:58:45.673Z,37.04
2023-04-10T12:01:14.560Z,38.77
2023-04-10T12:03:43.636Z,42.22
2023-04-10T12:06:13.837Z,41.98
2023-04-10T12:08:43.081Z,41.66
2023-04-10T12:11:11.855Z,42.24
2023-04-10T12:13:40.015Z,42.26
2023-04-10T12:16:09.686Z,44.14
2023-04-10T12:18:37.767Z,43.62
2023-04-10T12:21:08.135Z,41.44
2023-04-10T12:23:39.104Z,41.21
2023-04-10T12:26:10.048Z,39.22
2023-04-10T12:28:38.547Z,40.42
2023-04-10T12:31:07.310Z,38.13
2023-04-10T12:33:34.834Z,37.17
2023-04-10T12:36:02.647Z,36.32
2023-04-10T12:38:38.707Z,37.71
2023-04-10T12:41:07.124Z,36.72
2023-04-10T12:43:36.302Z,37.36
2023-04-10T12:46:04.376Z,35.14
2023-04-10T12:48:31.902Z,36.97
2023-04-10T12:50:59.440Z,33.61
2023-04-10T12:53:28.012Z,31.33
2023-04-10T12:56:02.727Z,32.42
2023-04-10T12:58:31.279Z,33.09
2023-04-10T13:01:00.744Z,33.81
2023-04-10T13:03:28.376Z,34.39
2023-04-10T13:05:56.196Z,35.25
2023-04-10T13:08:23.833Z,34.75
2023-04-10T13:10:51.497Z,34.04
2023-04-10T13:13:20.303Z,34.93
2023-04-10T13:15:47.844Z,34.18
2023-04-10T13:18:15.372Z,34.59
2023-04-10T13:20:43.046Z,35.30
2023-04-10T13:23:10.734Z,35.08
2023-04-10T13:25:40.633Z,35.69
2023-04-10T13:28:11.438Z,35.73
2023-04-10T13:30:41.971Z,36.81
2023-04-10T13:33:09.851Z,35.77
2023-04-10T13:35:37.512Z,35.77
2023-04-10T13:38:05.114Z,34.96
2023-04-10T13:40:33.244Z,36.94
2023-04-10T13:43:00.719Z,36.88
2023-04-10T13:45:28.543Z,36.99
2023-04-10T13:47:57.378Z,35.51
2023-04-10T13:50:24.975Z,35.97
2023-04-10T13:52:53.721Z,34.79
2023-04-10T13:55:21.375Z,34.91
2023-04-10T13:57:48.883Z,36.10
2023-04-10T14:00:17.161Z,34.77
2023-04-10T14:02:44.976Z,35.50
2023-04-10T14:05:13.932Z,35.61
2023-04-10T14:07:41.424Z,35.36
2023-04-10T14:10:10.034Z,35.67
2023-04-10T14:12:38.045Z,35.94
2023-04-10T14:15:06.608Z,34.83
2023-04-10T14:17:34.768Z,34.72
2023-04-10T14:20:02.333Z,35.09
2023-04-10T14:22:31.679Z,36.30
2023-04-10T14:25:11.912Z,35.78
2023-04-10T14:27:40.343Z,34.86
2023-04-10T14:30:09.236Z,34.04
2023-04-10T14:32:37.010Z,34.80
2023-04-10T14:35:04.742Z,34.03
2023-04-10T14:37:33.566Z,33.75
2023-04-10T14:40:01.145Z,34.01
2023-04-10T14:42:28.909Z,33.24
2023-04-10T14:44:58.713Z,33.12
2023-04-10T14:47:26.248Z,33.72
2023-04-10T14:49:53.737Z,35.01
2023-04-10T14:52:21.193Z,34.75
2023-04-10T14:54:49.981Z,34.66
2023-04-10T14:57:17.464Z,35.31
2023-04-10T14:59:45.238Z,35.05
2023-04-10T15:02:12.726Z,34.93
2023-04-10T15:04:40.353Z,34.58
2023-04-10T15:07:07.847Z,34.12
2023-04-10T15:09:35.306Z,33.81
2023-04-10T15:12:04.294Z,34.47
2023-04-10T15:14:32.039Z,34.10
2023-04-10T15:16:59.891Z,34.35
2023-04-10T15:19:27.424Z,33.94
2023-04-10T15:21:55.604Z,33.62
2023-04-10T15:24:23.087Z,34.02
2023-04-10T15:26:50.542Z,34.32
2023-04-10T15:29:19.430Z,33.05
2023-04-10T15:31:46.887Z,33.17
2023-04-10T15:34:14.351Z,33.57
2023-04-10T15:36:41.789Z,33.20
2023-04-10T15:39:09.442Z,34.17
2023-04-10T15:41:36.900Z,34.58
2023-04-10T15:44:04.415Z,35.03
2023-04-10T15:46:34.045Z,36.46
2023-04-10T15:49:01.688Z,35.56
2023-04-10T15:51:29.188Z,36.08
2023-04-10T15:53:56.825Z,35.67
2023-04-10T15:56:24.466Z,36.31
2023-04-10T15:58:51.937Z,37.62
2023-04-10T16:01:19.435Z,38.51
2023-04-10T16:03:49.266Z,38.20
2023-04-10T16:06:17.097Z,38.66
2023-04-10T16:08:44.660Z,39.55
2023-04-10T16:11:12.106Z,39.09
2023-04-10T16:13:42.250Z,39.16
2023-04-10T16:16:15.043Z,39.46
2023-04-10T16:18:44.689Z,39.16
2023-04-10T16:21:14.191Z,39.48
2023-04-10T16:23:41.676Z,39.02
2023-04-10T16:26:09.151Z,40.01
2023-04-10T16:28:36.616Z,40.07
2023-04-10T16:31:04.184Z,40.36
2023-04-10T16:33:31.714Z,40.88
2023-04-10T16:35:59.219Z,40.93
2023-04-10T16:38:28.081Z,41.76
2023-04-10T16:40:55.546Z,41.41
2023-04-10T16:43:23.797Z,40.90
2023-04-10T16:45:55.666Z,41.14
2023-04-10T16:48:23.367Z,41.03
2023-04-10T16:50:50.873Z,42.04
2023-04-10T16:53:18.880Z,41.54
2023-04-10T16:55:47.847Z,40.94
2023-04-10T16:58:15.309Z,40.98
2023-04-10T17:00:42.770Z,41.21
2023-04-10T17:03:10.421Z,41.48
2023-04-10T17:05:38.213Z,42.31
2023-04-10T17:08:06.402Z,43.08
2023-04-10T17:10:33.912Z,43.02
2023-04-10T17:13:02.811Z,43.41
2023-04-10T17:15:30.436Z,42.85
2023-04-10T17:17:57.944Z,43.74
2023-04-10T17:20:25.577Z,44.56
2023-04-10T17:22:53.036Z,43.80
2023-04-10T17:25:20.486Z,44.00
2023-04-10T17:27:47.943Z,44.45
2023-04-10T17:30:16.874Z,44.39
2023-04-10T17:32:44.341Z,44.68
2023-04-10T17:35:11.839Z,44.24
2023-04-10T17:37:39.269Z,44.12
2023-04-10T17:40:08.226Z,44.84
2023-04-10T17:42:35.719Z,44.33
2023-04-10T17:45:03.311Z,45.07
2023-04-10T17:47:32.725Z,45.76
2023-04-10T17:50:00.269Z,46.41
2023-04-10T17:52:27.781Z,46.97
2023-04-10T17:54:55.461Z,46.56
2023-04-10T17:57:23.066Z,46.72
2023-04-10T17:59:50.644Z,47.36
2023-04-10T18:02:18.196Z,47.41
2023-04-10T18:04:47.092Z,47.20
2023-04-10T18:07:14.554Z,46.08
2023-04-10T18:09:42.519Z,45.91
2023-04-10T18:12:10.648Z,46.35
2023-04-10T18:14:38.145Z,46.84
2023-04-10T18:17:05.755Z,46.68
2023-04-10T18:19:33.267Z,47.35
2023-04-10T18:22:02.090Z,47.19
2023-04-10T18:24:29.586Z,46.96
2023-04-10T18:26:57.167Z,46.84
2023-04-10T18:29:26.191Z,47.36
2023-04-10T18:31:53.638Z,47.43
2023-04-10T18:34:21.112Z,46.87
2023-04-10T18:36:48.587Z,46.60
2023-04-10T18:39:17.380Z,46.98
2023-04-10T18:41:44.845Z,47.25
2023-04-10T18:44:12.294Z,47.28
2023-04-10T18:46:42.642Z,47.88
2023-04-10T18:49:11.777Z,47.80
2023-04-10T18:51:40.788Z,47.67
2023-04-10T18:54:08.490Z,47.84
2023-04-10T18:56:38.193Z,47.70
2023-04-10T18:59:05.894Z,47.43
2023-04-10T19:01:33.807Z,47.36
2023-04-10T19:04:01.854Z,47.41
2023-04-10T19:06:30.227Z,47.06
2023-04-10T19:08:57.716Z,46.41
2023-04-10T19:11:25.444Z,47.32
2023-04-10T19:13:54.609Z,47.74
2023-04-10T19:16:22.573Z,48.50
2023-04-10T19:18:50.401Z,49.21
2023-04-10T19:21:17.875Z,49.64
2023-04-10T19:23:46.363Z,50.02
2023-04-10T19:26:13.857Z,50.58
2023-04-10T19:28:41.358Z,51.13
2023-04-10T19:31:10.336Z,51.31
2023-04-10T19:33:37.839Z,51.12
2023-04-10T19:36:08.046Z,51.29
2023-04-10T19:38:35.896Z,51.68
2023-04-10T19:41:03.363Z,52.35
2023-04-10T19:43:30.988Z,52.73
2023-04-10T19:45:59.829Z,52.22
2023-04-10T19:48:28.683Z,52.49
2023-04-10T19:50:56.166Z,52.11
2023-04-10T19:53:23.664Z,50.82
2023-04-10T19:55:51.125Z,51.90
2023-04-10T19:58:39.012Z,51.60
2023-04-10T20:01:08.485Z,51.83
2023-04-10T20:03:38.515Z,51.84
2023-04-10T20:06:08.188Z,51.41
2023-04-10T20:08:35.698Z,51.55
2023-04-10T20:11:06.526Z,51.61
2023-04-10T20:13:34.668Z,52.62
2023-04-10T20:16:02.744Z,53.10
2023-04-10T20:18:32.086Z,52.97
2023-04-10T20:21:00.979Z,53.46
2023-04-10T20:23:28.477Z,54.14
2023-04-10T20:25:55.979Z,54.50
2023-04-10T20:28:23.441Z,54.35
2023-04-10T20:30:50.944Z,54.42
2023-04-10T20:33:18.425Z,54.67
2023-04-10T20:35:45.909Z,55.15
2023-04-10T20:38:14.728Z,55.31
2023-04-10T20:40:42.228Z,54.61
2023-04-10T20:43:11.991Z,55.08
2023-04-10T20:45:39.972Z,55.58
2023-04-10T20:48:07.919Z,55.10
2023-04-10T20:50:36.854Z,55.28
2023-04-10T20:53:04.577Z,55.54
2023-04-10T20:55:33.858Z,55.57
2023-04-10T20:58:01.317Z,55.11
2023-04-10T21:00:30.760Z,56.06
2023-04-10T21:02:58.545Z,55.05
2023-04-10T21:05:26.289Z,55.64
2023-04-10T21:07:54.254Z,55.01
2023-04-10T21:10:21.964Z,55.96
2023-04-10T21:12:50.800Z,55.84
2023-04-10T21:15:18.301Z,55.78
2023-04-10T21:17:45.811Z,55.87
2023-04-10T21:20:13.322Z,56.18
2023-04-10T21:22:40.784Z,55.73
2023-04-10T21:25:09.193Z,55.87
2023-04-10T21:27:36.719Z,55.91
2023-04-10T21:30:06.497Z,55.22
2023-04-10T21:32:33.978Z,55.21
2023-04-10T21:35:01.705Z,56.37
2023-04-10T21:37:29.167Z,56.31
2023-04-10T21:39:56.609Z,56.32
2023-04-10T21:42:24.137Z,56.72
2023-04-10T21:44:51.599Z,57.53
2023-04-10T21:47:20.399Z,57.38
2023-04-10T21:49:47.880Z,56.66
2023-04-10T21:52:15.347Z,56.72
2023-04-10T21:54:42.807Z,57.66
2023-04-10T21:57:10.238Z,57.84
2023-04-10T21:59:37.977Z,56.83
2023-04-10T22:02:05.555Z,56.98
2023-04-10T22:04:34.689Z,57.44
2023-04-10T22:07:05.513Z,57.18
2023-04-10T22:09:33.080Z,58.09
2023-04-10T22:12:00.710Z,58.23
2023-04-10T22:14:28.189Z,58.98
2023-04-10T22:16:56.587Z,59.43
2023-04-10T22:19:25.638Z,59.42
2023-04-10T22:21:54.496Z,60.17
2023-04-10T22:24:21.953Z,61.76
2023-04-10T22:26:49.446Z,61.29
2023-04-10T22:29:16.970Z,60.57
2023-04-10T22:31:45.126Z,61.72
2023-04-10T22:34:12.628Z,60.38
2023-04-10T22:36:41.506Z,60.25
2023-04-10T22:39:10.309Z,60.12
2023-04-10T22:41:37.800Z,60.03
2023-04-10T22:44:07.320Z,60.45
2023-04-10T22:46:35.043Z,60.32
2023-04-10T22:49:02.570Z,60.27
2023-04-10T22:51:30.063Z,60.17
2023-04-10T22:53:57.617Z,59.25
2023-04-10T22:56:28.645Z,59.60
2023-04-10T22:58:56.672Z,59.36
2023-04-10T23:01:24.350Z,59.40
2023-04-10T23:03:53.713Z,59.99
2023-04-10T23:06:21.393Z,59.17
2023-04-10T23:08:48.906Z,58.68
2023-04-10T23:11:16.385Z,59.70
2023-04-10T23:13:45.409Z,61.58
2023-04-10T23:16:12.887Z,61.37
2023-04-10T23:18:40.397Z,62.10
2023-04-10T23:21:08.434Z,62.87
2023-04-10T23:23:35.922Z,63.79
2023-04-10T23:26:03.494Z,64.53
2023-04-10T23:28:30.949Z,64.61
2023-04-10T23:30:59.777Z,63.13
2023-04-10T23:33:27.283Z,64.17
2023-04-10T23:35:54.761Z,64.73
2023-04-10T23:38:22.283Z,64.31
2023-04-10T23:40:49.761Z,65.11
2023-04-10T23:43:17.278Z,64.59
2023-04-10T23:45:44.743Z,65.97
2023-04-10T23:48:13.609Z,65.08
2023-04-10T23:50:41.103Z,65.82
2023-04-10T23:53:09.136Z,66.24
2023-04-10T23:55:36.828Z,66.28
2023-04-10T23:58:04.303Z,67.12
